Time;durP1;ratioP1;P1;durP2;ratioP2;P2;SDS_P1;SDS_P2;PMS_P1;PMS_P2;Temp;Humidity;BMP_temperature;BMP_pressure;BME280_temperature;BME280_humidity;BME280_pressure;Samples;Min_cycle;Max_cycle;Signal;HPM_P1;HPM_P2
2024/03/23 00:01:47;;;;;;;5.03;1.83;;;16.10;75.30;;;;;;5069193;28;19991;-73
2024/03/23 00:04:14;;;;;;;3.45;1.80;;;16.10;75.30;;;;;;5068633;28;20039;-74
2024/03/23 00:06:40;;;;;;;4.63;1.73;;;16.10;75.30;;;;;;5068714;28;20048;-74
2024/03/23 00:09:07;;;;;;;4.07;2.20;;;16.10;75.20;;;;;;5069098;28;20107;-74
2024/03/23 00:11:36;;;;;;;8.30;2.22;;;16.10;75.20;;;;;;5070628;28;20032;-74
2024/03/23 00:14:04;;;;;;;4.40;1.83;;;16.00;75.20;;;;;;5085838;28;20533;-74
2024/03/23 00:16:31;;;;;;;7.10;2.38;;;16.00;75.20;;;;;;5069777;28;20070;-73
2024/03/23 00:19:02;;;;;;;5.07;2.10;;;16.10;75.20;;;;;;5070729;28;20020;-73
2024/03/23 00:21:29;;;;;;;5.53;1.77;;;16.00;75.30;;;;;;5069642;28;20564;-73
2024/03/23 00:23:56;;;;;;;4.32;1.80;;;16.00;75.20;;;;;;5085872;28;20107;-73
2024/03/23 00:26:22;;;;;;;7.15;2.10;;;16.00;75.20;;;;;;5069638;28;20051;-74
2024/03/23 00:28:50;;;;;;;4.30;2.10;;;16.00;75.30;;;;;;5068862;28;20044;-74
2024/03/23 00:31:16;;;;;;;5.32;2.30;;;16.00;75.30;;;;;;5069682;28;20113;-74
2024/03/23 00:33:43;;;;;;;3.67;1.50;;;16.00;75.30;;;;;;5085661;28;20449;-74
2024/03/23 00:36:10;;;;;;;6.75;2.30;;;16.00;75.30;;;;;;5084646;28;20032;-73
2024/03/23 00:38:39;;;;;;;5.93;1.90;;;16.00;75.30;;;;;;5068912;28;20123;-74
2024/03/23 00:41:06;;;;;;;5.75;2.22;;;16.00;75.30;;;;;;5070032;28;20040;-74
2024/03/23 00:43:32;;;;;;;4.65;2.10;;;15.90;75.30;;;;;;5070596;28;20066;-74
2024/03/23 00:45:59;;;;;;;6.07;2.58;;;15.90;75.40;;;;;;5069802;28;20810;-74
2024/03/23 00:48:26;;;;;;;4.90;1.88;;;15.90;75.30;;;;;;5069620;28;20074;-73
2024/03/23 00:50:52;;;;;;;4.05;1.85;;;15.90;75.40;;;;;;5089204;28;20116;-74
2024/03/23 00:53:18;;;;;;;4.22;1.80;;;15.90;75.30;;;;;;5072997;28;20064;-74
2024/03/23 00:55:44;;;;;;;6.60;2.38;;;15.90;75.20;;;;;;5073586;28;20048;-74
2024/03/23 00:58:10;;;;;;;6.87;2.20;;;15.90;75.30;;;;;;5073836;28;20063;-73
2024/03/23 01:00:36;;;;;;;6.70;2.13;;;15.90;75.20;;;;;;5089547;28;20032;-74
2024/03/23 01:03:01;;;;;;;4.50;1.90;;;15.90;75.30;;;;;;5074205;28;20454;-74
2024/03/23 01:05:27;;;;;;;7.17;2.33;;;15.80;75.30;;;;;;5075159;28;20017;-74
2024/03/23 01:07:53;;;;;;;5.07;2.20;;;15.80;75.30;;;;;;5071895;28;20103;-73
2024/03/23 01:10:19;;;;;;;5.27;2.13;;;15.80;75.30;;;;;;5074280;28;20024;-73
2024/03/23 01:12:44;;;;;;;6.17;2.30;;;15.80;75.20;;;;;;5089455;28;20029;-73
2024/03/23 01:15:10;;;;;;;5.60;2.17;;;15.80;75.30;;;;;;5073887;28;20032;-74
2024/03/23 01:17:36;;;;;;;6.70;2.03;;;15.80;75.30;;;;;;5089221;28;20036;-74
2024/03/23 01:20:02;;;;;;;5.10;2.27;;;15.80;75.30;;;;;;5073344;28;20035;-73
2024/03/23 01:22:28;;;;;;;5.45;2.33;;;15.80;75.30;;;;;;5072924;28;20036;-73
2024/03/23 01:24:54;;;;;;;5.93;2.30;;;15.80;75.20;;;;;;5073539;28;20029;-73
2024/03/23 01:27:19;;;;;;;5.23;1.50;;;15.80;75.30;;;;;;5073889;28;20039;-73
2024/03/23 01:29:45;;;;;;;5.23;2.10;;;15.80;75.30;;;;;;5071806;28;20028;-73
2024/03/23 01:32:11;;;;;;;4.50;1.93;;;15.70;75.30;;;;;;5088876;28;20478;-74
2024/03/23 01:34:36;;;;;;;5.13;1.80;;;15.70;75.20;;;;;;5073371;28;20029;-74
2024/03/23 01:37:02;;;;;;;4.43;2.23;;;15.70;75.30;;;;;;5072496;28;20021;-74
2024/03/23 01:39:28;;;;;;;6.23;2.40;;;15.70;75.30;;;;;;5072140;28;20079;-73
2024/03/23 01:41:54;;;;;;;3.63;1.80;;;15.70;75.30;;;;;;5073325;28;20032;-73
2024/03/23 01:44:19;;;;;;;8.13;2.13;;;15.70;75.20;;;;;;5073596;28;20020;-74
2024/03/23 01:46:45;;;;;;;4.27;1.97;;;15.70;75.20;;;;;;5071853;28;20484;-73
2024/03/23 01:49:12;;;;;;;4.97;2.10;;;15.70;75.20;;;;;;5073432;28;20104;-73
2024/03/23 01:51:38;;;;;;;7.22;1.92;;;15.70;75.30;;;;;;5071301;28;20025;-73
2024/03/23 01:54:06;;;;;;;7.05;2.45;;;15.70;75.20;;;;;;5088495;28;20033;-73
2024/03/23 01:56:35;;;;;;;7.18;2.58;;;15.60;75.30;;;;;;5072834;28;20033;-74
2024/03/23 01:59:05;;;;;;;3.85;1.98;;;15.70;75.30;;;;;;5071399;28;20465;-73
2024/03/23 02:01:40;;;;;;;4.10;1.90;;;15.60;75.30;;;;;;5088485;28;20028;-73
2024/03/23 02:04:06;;;;;;;4.93;1.92;;;15.60;75.30;;;;;;5088303;28;20024;-73
2024/03/23 02:06:33;;;;;;;4.20;2.00;;;15.60;75.30;;;;;;5072121;28;20044;-73
2024/03/23 02:09:00;;;;;;;4.30;1.92;;;15.60;75.30;;;;;;5070511;28;20093;-73
2024/03/23 02:11:25;;;;;;;;;;;15.60;75.30;;;;;;5073383;28;20036;-73
2024/03/23 02:13:51;;;;;;;7.63;1.63;;;15.60;75.30;;;;;;5070861;28;19915;-73
2024/03/23 02:16:17;;;;;;;5.23;1.73;;;15.60;75.30;;;;;;5072709;28;20515;-73
2024/03/23 02:18:42;;;;;;;3.70;2.00;;;15.60;75.40;;;;;;5072430;28;20052;-73
2024/03/23 02:21:08;;;;;;;8.63;2.70;;;15.50;75.30;;;;;;5071096;28;20374;-73
2024/03/23 02:23:34;;;;;;;4.93;1.83;;;15.50;75.30;;;;;;5071829;28;20566;-73
2024/03/23 02:25:59;;;;;;;4.80;2.07;;;15.50;75.30;;;;;;5070718;28;20028;-73
2024/03/23 02:28:25;;;;;;;4.50;2.00;;;15.50;75.30;;;;;;5087843;28;20030;-74
2024/03/23 02:30:52;;;;;;;4.90;1.47;;;15.50;75.20;;;;;;5072270;28;20039;-73
2024/03/23 02:33:17;;;;;;;5.90;1.88;;;15.50;75.20;;;;;;5072291;28;20024;-73
2024/03/23 02:35:47;;;;;;;9.27;2.27;;;15.50;75.20;;;;;;5071741;28;20201;-74
2024/03/23 02:38:13;;;;;;;7.35;2.03;;;15.50;75.20;;;;;;5071189;28;20017;-73
2024/03/23 02:40:38;;;;;;;8.37;3.07;;;15.50;75.20;;;;;;5071032;28;20021;-73
2024/03/23 02:43:04;;;;;;;4.07;1.93;;;15.50;75.20;;;;;;5071949;28;20021;-73
2024/03/23 02:45:30;;;;;;;5.20;2.13;;;15.50;75.20;;;;;;5070632;28;20021;-74
2024/03/23 02:47:57;;;;;;;7.97;2.57;;;15.40;75.20;;;;;;5087107;28;20280;-73
2024/03/23 02:50:23;;;;;;;6.25;1.95;;;15.40;75.20;;;;;;5071226;28;20634;-73
2024/03/23 02:52:48;;;;;;;7.10;1.67;;;15.40;75.20;;;;;;5069800;28;20037;-74
2024/03/23 02:55:14;;;;;;;5.37;2.00;;;15.40;75.20;;;;;;5087439;28;20024;-74
2024/03/23 02:57:40;;;;;;;8.98;2.08;;;15.40;75.10;;;;;;5071734;28;20461;-73
2024/03/23 03:00:07;;;;;;;4.47;2.23;;;15.40;75.30;;;;;;5069764;28;20377;-74
2024/03/23 03:02:33;;;;;;;5.00;2.08;;;15.40;75.20;;;;;;5071210;28;20719;-73
2024/03/23 03:04:59;;;;;;;6.30;2.03;;;15.40;75.20;;;;;;5071456;28;20130;-73
2024/03/23 03:07:25;;;;;;;4.85;1.63;;;15.40;75.20;;;;;;5071222;28;20143;-73
2024/03/23 03:09:51;;;;;;;2.90;1.47;;;15.40;75.00;;;;;;5071336;28;20116;-74
2024/03/23 03:12:17;;;;;;;4.93;1.67;;;15.40;75.00;;;;;;5086002;28;20454;-73
2024/03/23 03:14:42;;;;;;;4.37;1.50;;;15.30;75.10;;;;;;5071132;28;20080;-73
2024/03/23 03:17:08;;;;;;;5.47;1.60;;;15.40;75.10;;;;;;5068259;28;20458;-73
2024/03/23 03:19:34;;;;;;;7.27;2.27;;;15.30;75.10;;;;;;5068666;28;20637;-73
2024/03/23 03:22:00;;;;;;;5.33;1.90;;;15.30;75.10;;;;;;5069661;28;20036;-73
2024/03/23 03:24:26;;;;;;;3.30;1.53;;;15.30;75.10;;;;;;5071151;28;20028;-73
2024/03/23 03:26:51;;;;;;;4.93;2.20;;;15.30;75.10;;;;;;5070455;28;20016;-73
2024/03/23 03:29:17;;;;;;;3.57;1.47;;;15.30;75.10;;;;;;5069628;28;20461;-74
2024/03/23 03:31:43;;;;;;;4.97;2.30;;;15.30;75.10;;;;;;5086474;28;20037;-73
2024/03/23 03:34:09;;;;;;;6.13;2.25;;;15.30;75.10;;;;;;5071169;28;20021;-74
2024/03/23 03:36:34;;;;;;;2.93;1.80;;;15.30;75.20;;;;;;5070688;28;20094;-74
2024/03/23 03:39:02;;;;;;;3.40;1.97;;;15.30;75.20;;;;;;5070673;28;20475;-74
2024/03/23 03:41:28;;;;;;;7.68;2.30;;;15.30;75.10;;;;;;5070914;28;20020;-74
2024/03/23 03:43:55;;;;;;;5.00;1.87;;;15.20;75.10;;;;;;5086190;28;20507;-74
2024/03/23 03:46:20;;;;;;;8.43;1.92;;;15.20;75.10;;;;;;5070727;28;20373;-73
2024/03/23 03:48:48;;;;;;;4.87;1.87;;;15.20;75.20;;;;;;5067439;28;20028;-74
2024/03/23 03:51:13;;;;;;;6.93;2.00;;;15.20;75.10;;;;;;5070567;28;20057;-74
2024/03/23 03:53:39;;;;;;;5.63;1.60;;;15.20;75.10;;;;;;5070578;28;20028;-74
2024/03/23 03:56:05;;;;;;;2.90;1.50;;;15.20;75.10;;;;;;5086636;28;20028;-73
2024/03/23 03:58:31;;;;;;;4.47;1.50;;;15.20;75.10;;;;;;5086006;28;20338;-74
2024/03/23 04:00:56;;;;;;;3.23;1.27;;;15.20;75.10;;;;;;5070712;28;20028;-74
2024/03/23 04:03:22;;;;;;;3.80;1.43;;;15.20;75.10;;;;;;5069092;28;20025;-74
2024/03/23 04:05:54;;;;;;;2.83;1.47;;;15.20;75.10;;;;;;5070759;28;20478;-74
2024/03/23 04:08:21;;;;;;;3.42;1.42;;;15.20;75.10;;;;;;5070204;28;20033;-74
2024/03/23 04:10:47;;;;;;;8.75;1.90;;;15.10;75.10;;;;;;5085467;28;20028;-73
2024/03/23 04:13:16;;;;;;;8.10;1.92;;;15.10;75.10;;;;;;5069131;28;20470;-73
2024/03/23 04:15:42;;;;;;;4.28;1.75;;;15.10;75.10;;;;;;5085640;28;20047;-74
2024/03/23 04:18:08;;;;;;;2.47;1.30;;;15.10;75.00;;;;;;5086025;28;20052;-73
2024/03/23 04:20:34;;;;;;;4.78;2.17;;;15.10;75.00;;;;;;5085430;28;20269;-73
2024/03/23 04:23:00;;;;;;;3.40;1.47;;;15.10;75.00;;;;;;5069446;28;20362;-73
2024/03/23 04:25:25;;;;;;;2.27;1.47;;;15.10;75.00;;;;;;5069954;28;20078;-73
2024/03/23 04:27:51;;;;;;;5.90;1.60;;;15.10;75.00;;;;;;5070179;28;20063;-73
2024/03/23 04:30:17;;;;;;;3.90;1.53;;;15.10;74.90;;;;;;5070171;28;20062;-73
2024/03/23 04:32:43;;;;;;;4.50;1.45;;;15.10;74.90;;;;;;5070317;28;20024;-73
2024/03/23 04:35:09;;;;;;;4.13;1.50;;;15.10;74.90;;;;;;5070228;28;20292;-73
2024/03/23 04:37:36;;;;;;;3.53;1.40;;;15.10;74.90;;;;;;5085510;28;20485;-73
2024/03/23 04:40:03;;;;;;;;;;;15.10;74.80;;;;;;5056535;28;20420;-73
2024/03/23 04:42:29;;;;;;;5.95;1.50;;;15.00;74.80;;;;;;5069739;28;19904;-74
2024/03/23 04:44:55;;;;;;;5.15;1.38;;;15.00;74.80;;;;;;5070053;28;20086;-74
2024/03/23 04:47:20;;;;;;;6.47;1.13;;;15.00;74.90;;;;;;5069196;28;20040;-73
2024/03/23 04:49:46;;;;;;;6.17;1.63;;;15.00;74.80;;;;;;5070005;28;20417;-74
2024/03/23 04:52:12;;;;;;;3.80;1.67;;;15.00;74.80;;;;;;5084867;28;20285;-73
2024/03/23 04:54:40;;;;;;;6.17;1.97;;;15.00;74.70;;;;;;5069112;28;20446;-73
2024/03/23 04:57:06;;;;;;;5.63;1.45;;;15.00;74.80;;;;;;5085532;28;20021;-73
2024/03/23 04:59:32;;;;;;;6.83;1.50;;;15.00;74.70;;;;;;5085441;28;20028;-73
2024/03/23 05:01:57;;;;;;;4.73;1.80;;;15.00;74.80;;;;;;5070137;28;20335;-73
2024/03/23 05:04:23;;;;;;;2.27;1.43;;;15.00;74.70;;;;;;5068480;28;20469;-74
2024/03/23 05:06:49;;;;;;;4.27;1.43;;;15.00;74.70;;;;;;5068309;28;20056;-74
2024/03/23 05:09:15;;;;;;;4.17;1.30;;;15.00;74.70;;;;;;5069447;28;20557;-73
2024/03/23 05:11:44;;;;;;;2.60;1.37;;;14.90;74.70;;;;;;5069910;28;20453;-74
2024/03/23 05:14:13;;;;;;;4.07;1.25;;;14.90;74.70;;;;;;5084687;28;20127;-73
2024/03/23 05:16:39;;;;;;;4.90;1.20;;;14.90;74.70;;;;;;5070050;28;20056;-74
2024/03/23 05:19:05;;;;;;;6.35;1.42;;;14.90;74.60;;;;;;5069305;28;20055;-73
2024/03/23 05:21:31;;;;;;;4.93;1.50;;;14.90;74.60;;;;;;5085275;28;20123;-74
2024/03/23 05:23:57;;;;;;;6.57;1.67;;;14.90;74.60;;;;;;5084998;28;20436;-74
2024/03/23 05:26:23;;;;;;;3.17;1.10;;;14.90;74.60;;;;;;5069049;28;20021;-73
2024/03/23 05:28:48;;;;;;;3.53;1.10;;;14.90;74.50;;;;;;5069245;28;20040;-73
2024/03/23 05:31:31;;;;;;;3.30;1.40;;;14.90;74.50;;;;;;5085336;28;20024;-73
2024/03/23 05:33:57;;;;;;;5.35;1.20;;;14.90;74.50;;;;;;5069051;28;20052;-73
2024/03/23 05:36:26;;;;;;;4.85;1.48;;;14.90;74.50;;;;;;5072721;28;20103;-74
2024/03/23 05:38:52;;;;;;;7.25;1.33;;;14.90;74.50;;;;;;5071979;28;20036;-73
2024/03/23 05:41:17;;;;;;;4.83;1.20;;;14.80;74.50;;;;;;5072887;28;20021;-73
2024/03/23 05:43:43;;;;;;;5.33;1.70;;;14.90;74.30;;;;;;5073141;28;20034;-73
2024/03/23 05:46:09;;;;;;;5.13;1.30;;;14.80;74.40;;;;;;5087911;28;20032;-73
2024/03/23 05:48:35;;;;;;;3.83;1.30;;;14.80;74.30;;;;;;5073212;28;20029;-73
2024/03/23 05:51:01;;;;;;;2.77;0.97;;;14.80;74.40;;;;;;5072792;28;20503;-73
2024/03/23 05:53:29;;;;;;;3.10;1.08;;;14.80;74.40;;;;;;5072544;28;20253;-73
2024/03/23 05:56:05;;;;;;;6.03;1.45;;;14.80;74.30;;;;;;5088130;28;20389;-73
2024/03/23 05:58:31;;;;;;;2.22;1.08;;;14.80;74.20;;;;;;5073077;28;20070;-73
2024/03/23 06:01:01;;;;;;;2.72;1.30;;;14.80;74.20;;;;;;5072775;28;20028;-73
2024/03/23 06:03:27;;;;;;;3.83;1.35;;;14.80;74.10;;;;;;5073089;28;20357;-73
2024/03/23 06:05:53;;;;;;;1.35;0.98;;;14.80;74.00;;;;;;5087340;28;20040;-73
2024/03/23 06:08:19;;;;;;;4.40;1.20;;;14.80;74.10;;;;;;5071170;28;20035;-74
2024/03/23 06:10:46;;;;;;;3.85;1.38;;;14.80;74.10;;;;;;5088074;28;20051;-73
2024/03/23 06:13:12;;;;;;;2.42;1.25;;;14.80;74.00;;;;;;5072718;28;20112;-74
2024/03/23 06:15:38;;;;;;;1.92;0.90;;;14.90;73.90;;;;;;5087950;28;20020;-73
2024/03/23 06:18:05;;;;;;;2.37;1.20;;;14.90;73.70;;;;;;5072557;28;20032;-73
2024/03/23 06:20:30;;;;;;;3.28;1.23;;;14.90;73.50;;;;;;5072407;28;20257;-74
2024/03/23 06:22:57;;;;;;;1.57;0.97;;;15.00;73.30;;;;;;5088282;28;20359;-73
2024/03/23 06:25:23;;;;;;;2.33;0.90;;;15.00;73.20;;;;;;5072433;28;20017;-73
2024/03/23 06:27:48;;;;;;;3.43;1.40;;;15.10;72.90;;;;;;5071701;28;20047;-73
2024/03/23 06:30:14;;;;;;;4.47;1.00;;;15.10;72.70;;;;;;5087816;28;20020;-73
2024/03/23 06:32:40;;;;;;;2.17;1.10;;;15.20;72.40;;;;;;5071876;28;20035;-73
2024/03/23 06:35:08;;;;;;;3.73;1.40;;;15.30;72.00;;;;;;5070957;28;20039;-73
2024/03/23 06:37:38;;;;;;;2.85;1.08;;;15.50;71.40;;;;;;5070358;28;20369;-74
2024/03/23 06:40:08;;;;;;;2.47;1.10;;;15.50;71.00;;;;;;5061818;28;20024;-73
2024/03/23 06:42:34;;;;;;;5.57;1.40;;;15.50;70.90;;;;;;5070964;28;20044;-73
2024/03/23 06:44:59;;;;;;;2.33;0.90;;;15.60;70.60;;;;;;5072079;28;20137;-73
2024/03/23 06:47:25;;;;;;;2.07;0.80;;;15.60;70.40;;;;;;5070574;28;20462;-73
2024/03/23 06:49:51;;;;;;;3.40;1.00;;;15.60;70.20;;;;;;5071966;28;20068;-73
2024/03/23 06:52:17;;;;;;;1.47;1.07;;;15.70;70.00;;;;;;5070252;28;20377;-73
2024/03/23 06:54:44;;;;;;;1.27;0.70;;;15.80;69.60;;;;;;5071873;28;20402;-74
2024/03/23 06:57:11;;;;;;;5.25;1.48;;;15.90;69.20;;;;;;5087345;28;20268;-73
2024/03/23 06:59:38;;;;;;;1.98;0.75;;;16.00;68.90;;;;;;5071510;28;20024;-73
2024/03/23 07:02:05;;;;;;;2.63;1.00;;;16.10;68.40;;;;;;5069947;28;20048;-73
2024/03/23 07:04:31;;;;;;;1.60;1.02;;;16.30;68.00;;;;;;5087268;28;20043;-73
2024/03/23 07:06:56;;;;;;;3.63;1.13;;;16.40;67.30;;;;;;5086482;28;20045;-73
2024/03/23 07:09:26;;;;;;;3.67;1.10;;;16.50;66.90;;;;;;5087006;28;20036;-73
2024/03/23 07:11:54;;;;;;;6.63;1.75;;;16.60;66.70;;;;;;5071117;28;20103;-73
2024/03/23 07:14:20;;;;;;;3.05;1.20;;;16.40;66.90;;;;;;5070095;28;20032;-73
2024/03/23 07:16:45;;;;;;;4.13;1.40;;;16.20;67.50;;;;;;5086886;28;20115;-74
2024/03/23 07:19:11;;;;;;;2.17;0.93;;;16.00;68.10;;;;;;5071241;28;20095;-73
2024/03/23 07:21:37;;;;;;;3.17;0.80;;;15.90;68.40;;;;;;5070841;28;20027;-74
2024/03/23 07:24:03;;;;;;;2.83;0.93;;;15.90;68.70;;;;;;5071338;28;20025;-74
2024/03/23 07:26:28;;;;;;;4.07;1.00;;;15.80;68.80;;;;;;5086366;28;20640;-73
2024/03/23 07:28:54;;;;;;;5.93;1.00;;;16.00;68.60;;;;;;5071176;28;20029;-73
2024/03/23 07:31:20;;;;;;;2.50;0.90;;;16.50;67.20;;;;;;5070763;28;20093;-73
2024/03/23 07:33:49;;;;;;;2.73;0.80;;;16.40;66.80;;;;;;5069542;28;20035;-73
2024/03/23 07:36:14;;;;;;;3.78;1.10;;;16.30;66.90;;;;;;5070781;28;20028;-73
2024/03/23 07:38:41;;;;;;;5.27;1.10;;;16.10;67.50;;;;;;5069380;28;20089;-73
2024/03/23 07:41:08;;;;;;;;;;;16.50;66.70;;;;;;5071266;28;20032;-73
2024/03/23 07:43:34;;;;;;;4.40;1.10;;;16.40;66.70;;;;;;5071171;28;20328;-73
2024/03/23 07:46:00;;;;;;;2.58;0.88;;;16.50;66.50;;;;;;5085587;28;20032;-75
2024/03/23 07:48:27;;;;;;;4.75;1.42;;;16.40;66.40;;;;;;5069503;28;20028;-73
2024/03/23 07:50:59;;;;;;;;;;;16.70;65.80;;;;;;5071158;28;20477;-74
2024/03/23 07:53:25;;;;;;;4.68;1.40;;;16.90;65.30;;;;;;5070396;28;19913;-74
2024/03/23 07:55:55;;;;;;;1.13;0.80;;;17.30;63.70;;;;;;5070400;28;20073;-74
2024/03/23 07:58:21;;;;;;;1.88;0.90;;;17.10;64.40;;;;;;5070840;28;20016;-74
2024/03/23 08:00:47;;;;;;;3.47;1.13;;;16.80;65.10;;;;;;5070877;28;20024;-74
2024/03/23 08:03:12;;;;;;;4.13;1.00;;;16.80;64.80;;;;;;5070585;28;20028;-74
2024/03/23 08:05:38;;;;;;;7.47;1.77;;;16.70;65.40;;;;;;5085012;28;20803;-75
2024/03/23 08:08:04;;;;;;;4.17;1.47;;;16.50;65.80;;;;;;5069474;28;20385;-74
2024/03/23 08:10:30;;;;;;;6.70;1.13;;;16.40;66.20;;;;;;5069126;28;20114;-74
2024/03/23 08:12:55;;;;;;;5.20;1.57;;;16.40;66.30;;;;;;5086223;28;20033;-74
2024/03/23 08:15:21;;;;;;;30.83;15.47;;;16.70;65.20;;;;;;5069536;28;20020;-74
2024/03/23 08:17:47;;;;;;;16.97;11.53;;;16.80;65.20;;;;;;5070844;28;20094;-74
2024/03/23 08:20:13;;;;;;;24.83;13.30;;;17.40;63.00;;;;;;5069060;28;20020;-75
2024/03/23 08:22:38;;;;;;;17.23;12.17;;;16.90;64.60;;;;;;5069259;28;20028;-74
2024/03/23 08:25:04;;;;;;;15.10;10.20;;;16.60;65.90;;;;;;5070684;28;20490;-74
2024/03/23 08:27:30;;;;;;;14.65;8.38;;;16.50;66.10;;;;;;5069892;28;20028;-75
2024/03/23 08:29:56;;;;;;;15.67;9.37;;;17.50;63.50;;;;;;5069189;28;20028;-74
2024/03/23 08:32:21;;;;;;;13.40;9.70;;;17.20;63.70;;;;;;5069912;28;20107;-75
2024/03/23 08:34:47;;;;;;;11.33;7.60;;;17.60;63.00;;;;;;5084323;28;20025;-74
2024/03/23 08:37:13;;;;;;;11.87;6.70;;;17.90;61.90;;;;;;5069918;28;20024;-74
2024/03/23 08:39:38;;;;;;;22.83;10.53;;;17.80;61.80;;;;;;5068392;28;20064;-74
2024/03/23 08:42:04;;;;;;;18.10;12.57;;;18.10;61.50;;;;;;5068132;28;20085;-74
2024/03/23 08:44:30;;;;;;;25.38;13.05;;;18.10;61.00;;;;;;5068343;28;20034;-74
2024/03/23 08:46:56;;;;;;;17.50;11.03;;;18.70;60.10;;;;;;5069567;28;20021;-74
2024/03/23 08:49:22;;;;;;;16.50;11.20;;;18.90;58.70;;;;;;5070361;28;20021;-73
2024/03/23 08:51:47;;;;;;;17.57;9.97;;;18.70;59.00;;;;;;5069668;28;20266;-75
2024/03/23 08:54:13;;;;;;;16.27;9.40;;;19.00;58.40;;;;;;5067236;28;20086;-74
2024/03/23 08:56:39;;;;;;;16.63;10.13;;;20.10;54.50;;;;;;5067851;28;20029;-74
2024/03/23 08:59:04;;;;;;;15.13;8.83;;;20.10;54.20;;;;;;5069566;28;20025;-74
2024/03/23 09:01:30;;;;;;;15.13;8.93;;;19.50;54.60;;;;;;5085095;28;20119;-74
2024/03/23 09:03:56;;;;;;;16.13;9.10;;;19.20;55.70;;;;;;5084498;28;20215;-75
2024/03/23 09:06:21;;;;;;;16.23;8.70;;;18.90;57.30;;;;;;5068280;28;20048;-75
2024/03/23 09:08:47;;;;;;;15.67;8.73;;;18.80;57.50;;;;;;5069402;28;20361;-74
2024/03/23 09:11:13;;;;;;;10.97;7.87;;;18.30;59.40;;;;;;5073245;28;20111;-74
2024/03/23 09:13:41;;;;;;;15.65;8.25;;;18.00;60.40;;;;;;5089353;28;20036;-74
2024/03/23 09:16:08;;;;;;;15.60;8.43;;;17.80;61.10;;;;;;5073265;28;20025;-74
2024/03/23 09:18:36;;;;;;;12.48;7.10;;;17.60;61.70;;;;;;5071883;28;20056;-74
2024/03/23 09:21:04;;;;;;;14.43;7.70;;;17.50;62.30;;;;;;5074210;28;20028;-76
2024/03/23 09:23:29;;;;;;;14.20;7.35;;;17.70;61.80;;;;;;5089088;28;20115;-75
2024/03/23 09:25:55;;;;;;;12.97;7.30;;;17.50;62.40;;;;;;5087695;28;20441;-75
2024/03/23 09:28:22;;;;;;;14.87;6.80;;;17.50;62.50;;;;;;5073679;28;20051;-74
2024/03/23 09:30:47;;;;;;;10.07;6.57;;;19.00;58.20;;;;;;5088461;28;20052;-75
2024/03/23 09:33:13;;;;;;;9.80;6.57;;;19.30;57.20;;;;;;5073599;28;20056;-74
2024/03/23 09:35:40;;;;;;;13.52;6.78;;;20.30;54.30;;;;;;5072386;28;20028;-74
2024/03/23 09:38:09;;;;;;;9.85;5.47;;;18.90;57.40;;;;;;5073229;28;20378;-73
2024/03/23 09:40:42;;;;;;;13.27;6.15;;;18.20;59.20;;;;;;5073627;28;20029;-75
2024/03/23 09:43:08;;;;;;;11.43;5.30;;;17.90;60.50;;;;;;5073169;28;20522;-74
2024/03/23 09:45:39;;;;;;;10.77;5.45;;;18.10;60.70;;;;;;5073364;28;20017;-74
2024/03/23 09:48:06;;;;;;;9.93;5.55;;;18.80;58.50;;;;;;5071718;28;20123;-74
2024/03/23 09:50:32;;;;;;;13.60;5.65;;;18.70;58.50;;;;;;5073395;28;20025;-74
2024/03/23 09:52:58;;;;;;;11.17;5.23;;;18.60;58.90;;;;;;5073546;28;20074;-73
2024/03/23 09:55:24;;;;;;;10.40;4.87;;;18.60;58.90;;;;;;5072398;28;20059;-74
2024/03/23 09:57:50;;;;;;;9.95;4.68;;;18.40;59.70;;;;;;5071589;28;20083;-74
2024/03/23 10:00:16;;;;;;;12.57;4.72;;;18.40;59.50;;;;;;5072841;28;20052;-74
2024/03/23 10:02:42;;;;;;;7.85;4.30;;;18.20;60.20;;;;;;5071734;28;20469;-74
2024/03/23 10:05:23;;;;;;;8.02;4.00;;;18.00;60.70;;;;;;5072531;28;20111;-74
2024/03/23 10:07:50;;;;;;;8.40;4.88;;;18.80;58.90;;;;;;5073085;28;20036;-74
2024/03/23 10:10:17;;;;;;;10.95;4.53;;;18.40;59.30;;;;;;5072758;28;20025;-74
2024/03/23 10:12:47;;;;;;;9.38;4.25;;;18.10;59.90;;;;;;5088043;28;20040;-75
2024/03/23 10:15:24;;;;;;;6.47;3.70;;;18.10;60.20;;;;;;5073814;28;20029;-75
2024/03/23 10:17:51;;;;;;;62.17;28.08;;;19.70;56.00;;;;;;5073066;28;20035;-75
2024/03/23 10:20:24;;;;;;;47.35;23.67;;;20.40;54.30;;;;;;5071994;28;20771;-74
2024/03/23 10:22:53;;;;;;;33.08;16.60;;;20.30;53.70;;;;;;5069695;28;20090;-75
2024/03/23 10:25:22;;;;;;;29.88;14.73;;;19.40;56.10;;;;;;5071968;28;20158;-74
2024/03/23 10:28:01;;;;;;;25.27;12.95;;;18.80;57.90;;;;;;5071227;28;20544;-75
2024/03/23 10:30:27;;;;;;;25.40;11.07;;;20.00;55.00;;;;;;5070831;28;20024;-74
2024/03/23 10:33:11;;;;;;;27.08;11.10;;;19.30;56.70;;;;;;5070683;28;20080;-75
2024/03/23 10:35:38;;;;;;;18.65;9.68;;;19.20;57.70;;;;;;5070615;28;20316;-75
2024/03/23 10:38:07;;;;;;;20.85;10.80;;;19.00;57.90;;;;;;5072027;28;20028;-74
2024/03/23 10:40:36;;;;;;;20.25;9.93;;;19.00;58.30;;;;;;5073248;28;20094;-74
2024/03/23 10:43:06;;;;;;;19.50;8.85;;;19.20;57.90;;;;;;5072099;28;20775;-74
2024/03/23 10:45:32;;;;;;;17.85;8.07;;;20.00;56.10;;;;;;5087608;28;20024;-74
2024/03/23 10:47:57;;;;;;;19.13;7.33;;;19.50;56.70;;;;;;5072130;28;20052;-74
2024/03/23 10:50:23;;;;;;;14.37;7.17;;;19.20;57.90;;;;;;5072918;28;20307;-74
2024/03/23 10:52:51;;;;;;;15.50;6.40;;;18.90;58.60;;;;;;5072286;28;20527;-74
2024/03/23 10:55:19;;;;;;;13.65;6.43;;;18.90;59.20;;;;;;5071755;28;20457;-74
2024/03/23 10:57:51;;;;;;;16.95;6.60;;;18.60;59.50;;;;;;5072349;28;20093;-74
2024/03/23 11:00:17;;;;;;;14.23;5.80;;;18.50;60.20;;;;;;5068508;28;20021;-75
2024/03/23 11:02:43;;;;;;;14.90;5.93;;;20.90;54.60;;;;;;5062210;28;20032;-74
2024/03/23 11:05:35;;;;;;;13.02;4.63;;;21.80;51.80;;;;;;5070240;28;20091;-75
2024/03/23 11:08:01;;;;;;;15.15;4.97;;;20.70;53.30;;;;;;5067662;28;20048;-74
2024/03/23 11:10:29;;;;;;;10.80;5.32;;;20.00;55.80;;;;;;5071204;28;20024;-74
2024/03/23 11:12:58;;;;;;;12.55;4.50;;;20.20;55.80;;;;;;5071273;28;20543;-75
2024/03/23 11:15:24;;;;;;;14.60;5.53;;;20.10;56.20;;;;;;5086920;28;20024;-74
2024/03/23 11:18:04;;;;;;;8.27;4.05;;;19.60;57.50;;;;;;5086842;28;20054;-74
2024/03/23 11:20:34;;;;;;;13.15;4.45;;;19.30;58.40;;;;;;5069925;28;20044;-73
2024/03/23 11:23:01;;;;;;;10.30;4.15;;;19.10;59.20;;;;;;5071132;28;20029;-75
2024/03/23 11:25:27;;;;;;;;;;;19.20;59.00;;;;;;5072059;28;20020;-75
2024/03/23 11:27:54;;;;;;;10.85;4.35;;;19.50;58.50;;;;;;5069927;28;19905;-75
2024/03/23 11:30:28;;;;;;;11.80;4.47;;;19.40;58.40;;;;;;5069783;28;20056;-75
2024/03/23 11:32:56;;;;;;;10.10;4.63;;;19.10;59.30;;;;;;5057782;28;20091;-74
2024/03/23 11:35:33;;;;;;;8.90;4.07;;;19.00;59.50;;;;;;5071121;28;20029;-75
2024/03/23 11:38:02;;;;;;;13.68;4.35;;;18.70;60.20;;;;;;5068092;28;20070;-74
2024/03/23 11:40:29;;;;;;;11.40;4.30;;;18.60;60.50;;;;;;5086339;28;20020;-74
2024/03/23 11:43:08;;;;;;;9.13;3.47;;;18.60;60.60;;;;;;5085937;28;20484;-75
2024/03/23 11:45:42;;;;;;;9.18;3.58;;;18.50;60.70;;;;;;5069437;28;20128;-75
2024/03/23 11:48:13;;;;;;;11.55;3.70;;;18.60;60.50;;;;;;5070990;28;20111;-74
2024/03/23 11:50:43;;;;;;;9.57;3.67;;;18.80;59.90;;;;;;5086542;28;20078;-74
2024/03/23 11:53:14;;;;;;;11.15;3.75;;;19.10;59.00;;;;;;5085676;28;20115;-74
2024/03/23 11:56:00;;;;;;;11.25;3.33;;;19.00;59.10;;;;;;5070512;28;20126;-75
2024/03/23 11:58:27;;;;;;;11.18;3.30;;;18.80;59.70;;;;;;5086204;28;20020;-75
2024/03/23 12:01:02;;;;;;;10.23;3.38;;;18.80;59.90;;;;;;5086272;28;20036;-75
2024/03/23 12:03:28;;;;;;;6.28;2.90;;;19.10;58.90;;;;;;5070384;28;20052;-75
2024/03/23 12:05:56;;;;;;;8.82;2.90;;;19.00;58.80;;;;;;5085751;28;20553;-75
2024/03/23 12:08:30;;;;;;;5.03;2.35;;;19.00;58.90;;;;;;5068834;28;20493;-75
2024/03/23 12:11:17;;;;;;;6.18;2.63;;;19.00;58.90;;;;;;5070989;28;20029;-75
2024/03/23 12:13:49;;;;;;;9.13;2.78;;;19.10;58.80;;;;;;5085590;28;20501;-75
2024/03/23 12:16:20;;;;;;;8.20;2.88;;;19.20;58.60;;;;;;5070359;28;20042;-76
2024/03/23 12:18:48;;;;;;;5.70;2.58;;;19.30;58.20;;;;;;5085582;28;20024;-75
2024/03/23 12:21:14;;;;;;;8.00;2.50;;;19.20;58.20;;;;;;5085356;28;20633;-75
2024/03/23 12:23:40;;;;;;;5.53;2.22;;;19.20;58.30;;;;;;5069419;28;20103;-74
2024/03/23 12:26:06;;;;;;;7.70;2.97;;;19.10;58.40;;;;;;5070778;28;20035;-75
2024/03/23 12:28:33;;;;;;;7.80;2.70;;;18.90;58.70;;;;;;5070381;28;20351;-75
2024/03/23 12:30:58;;;;;;;7.53;2.35;;;18.80;59.00;;;;;;5069943;28;20038;-74
2024/03/23 12:33:24;;;;;;;5.57;2.30;;;18.70;59.40;;;;;;5085263;28;20392;-74
2024/03/23 12:35:50;;;;;;;7.90;1.93;;;18.60;59.80;;;;;;5068510;28;20378;-76
2024/03/23 12:38:17;;;;;;;8.15;2.53;;;18.40;60.20;;;;;;5080201;28;20518;-75
2024/03/23 12:40:49;;;;;;;6.53;4.88;;;18.40;60.10;;;;;;5060345;28;20132;-76
2024/03/23 12:43:15;;;;;;;8.77;5.22;;;18.40;60.40;;;;;;5085061;28;20032;-75
2024/03/23 12:45:45;;;;;;;13.68;4.63;;;18.50;60.30;;;;;;5067678;28;20063;-76